createdAt,value
2023-05-22T00:01:30.110Z,18.63
2023-05-22T00:03:57.111Z,20.20
2023-05-22T00:06:24.570Z,16.02
2023-05-22T00:08:51.065Z,22.15
2023-05-22T00:11:17.637Z,19.13
2023-05-22T00:13:44.097Z,20.17
2023-05-22T00:16:10.570Z,22.15
2023-05-22T00:18:37.072Z,19.90
2023-05-22T00:21:03.498Z,20.23
2023-05-22T00:23:29.981Z,21.25
2023-05-22T00:25:56.473Z,22.33
2023-05-22T00:28:22.881Z,20.15
2023-05-22T00:30:49.336Z,23.88
2023-05-22T00:33:16.105Z,20.90
2023-05-22T00:35:42.509Z,19.05
2023-05-22T00:38:08.983Z,20.75
2023-05-22T00:40:35.407Z,21.17
2023-05-22T00:43:08.327Z,22.90
2023-05-22T00:45:35.066Z,25.70
2023-05-22T00:48:01.575Z,23.10
2023-05-22T00:50:28.092Z,21.13
2023-05-22T00:52:54.507Z,17.83
2023-05-22T00:55:21.008Z,22.48
2023-05-22T00:57:47.969Z,19.98
2023-05-22T01:00:15.268Z,24.20
2023-05-22T01:02:43.341Z,18.52
2023-05-22T01:05:13.219Z,19.98
2023-05-22T01:07:40.117Z,19.30
2023-05-22T01:10:07.240Z,20.25
2023-05-22T01:12:52.466Z,22.50
2023-05-22T01:15:31.173Z,21.63
2023-05-22T01:18:04.284Z,19.35
2023-05-22T01:20:32.509Z,19.63
2023-05-22T01:23:25.286Z,18.08
2023-05-22T01:26:10.651Z,18.67
2023-05-22T01:28:42.127Z,22.27
2023-05-22T01:31:11.312Z,19.00
2023-05-22T01:33:47.169Z,19.88
2023-05-22T01:36:20.153Z,19.30
2023-05-22T01:38:46.898Z,22.88
2023-05-22T01:41:13.807Z,20.15
2023-05-22T01:43:40.357Z,18.73
2023-05-22T01:46:06.972Z,18.95
2023-05-22T01:48:33.615Z,19.92
2023-05-22T01:51:03.706Z,16.75
2023-05-22T01:53:33.166Z,23.15
2023-05-22T01:56:16.679Z,16.58
2023-05-22T01:58:46.504Z,18.60
2023-05-22T02:01:14.262Z,18.73
2023-05-22T02:03:41.837Z,18.60
2023-05-22T02:06:12.912Z,23.83
2023-05-22T02:08:41.185Z,17.20
2023-05-22T02:11:09.054Z,19.23
2023-05-22T02:13:35.951Z,17.65
2023-05-22T02:16:04.129Z,20.23
2023-05-22T02:18:31.173Z,21.25
2023-05-22T02:20:58.265Z,18.42
2023-05-22T02:23:25.177Z,18.75
2023-05-22T02:25:52.072Z,21.60
2023-05-22T02:28:18.582Z,18.85
2023-05-22T02:30:45.015Z,17.55
2023-05-22T02:33:11.534Z,19.13
2023-05-22T02:35:38.103Z,19.25
2023-05-22T02:38:04.848Z,19.65
2023-05-22T02:40:31.378Z,20.00
2023-05-22T02:42:57.778Z,19.15
2023-05-22T02:45:24.286Z,27.63
2023-05-22T02:47:50.867Z,25.35
2023-05-22T02:50:17.544Z,21.08
2023-05-22T02:52:45.295Z,29.58
2023-05-22T02:55:11.784Z,18.85
2023-05-22T02:57:38.256Z,20.45
2023-05-22T03:00:07.097Z,23.65
2023-05-22T03:02:33.712Z,22.67
2023-05-22T03:05:00.185Z,22.63
2023-05-22T03:07:27.133Z,21.42
2023-05-22T03:09:53.642Z,23.90
2023-05-22T03:12:20.081Z,18.67
2023-05-22T03:14:46.937Z,20.98
2023-05-22T03:17:13.400Z,23.25
2023-05-22T03:19:39.795Z,20.88
2023-05-22T03:22:06.691Z,21.90
2023-05-22T03:24:33.330Z,20.70
2023-05-22T03:27:00.344Z,24.05
2023-05-22T03:29:26.802Z,19.58
2023-05-22T03:31:54.103Z,25.95
2023-05-22T03:34:22.682Z,19.98
2023-05-22T03:36:49.266Z,22.73
2023-05-22T03:39:15.762Z,21.48
2023-05-22T03:41:42.234Z,20.55
2023-05-22T03:44:08.640Z,22.98
2023-05-22T03:46:35.066Z,24.17
2023-05-22T03:49:01.551Z,22.95
2023-05-22T03:51:28.082Z,23.20
2023-05-22T03:53:54.512Z,24.52
2023-05-22T03:56:21.242Z,28.58
2023-05-22T03:58:47.688Z,21.95
2023-05-22T04:01:14.114Z,21.85
2023-05-22T04:03:40.680Z,23.85
2023-05-22T04:06:07.664Z,21.05
2023-05-22T04:08:34.508Z,25.60
2023-05-22T04:11:00.997Z,23.77
2023-05-22T04:13:27.433Z,28.13
2023-05-22T04:15:54.151Z,21.48
2023-05-22T04:18:20.721Z,23.55
2023-05-22T04:20:47.170Z,24.77
2023-05-22T04:23:13.711Z,24.85
2023-05-22T04:25:40.188Z,22.65
2023-05-22T04:28:07.210Z,25.95
2023-05-22T04:30:34.132Z,25.27
2023-05-22T04:33:00.886Z,31.85
2023-05-22T04:35:29.643Z,24.73
2023-05-22T04:38:02.282Z,24.50
2023-05-22T04:40:30.454Z,27.45
2023-05-22T04:42:59.937Z,24.40
2023-05-22T04:45:28.779Z,30.23
2023-05-22T04:47:56.047Z,27.27
2023-05-22T04:50:23.898Z,16.95
2023-05-22T04:52:50.522Z,19.38
2023-05-22T04:55:17.274Z,17.80
2023-05-22T04:57:47.436Z,21.88
2023-05-22T05:00:15.919Z,20.67
2023-05-22T05:02:42.668Z,20.10
2023-05-22T05:05:09.236Z,25.80
2023-05-22T05:07:39.431Z,28.83
2023-05-22T05:10:07.289Z,24.58
2023-05-22T05:12:33.918Z,22.52
2023-05-22T05:15:00.644Z,25.65
2023-05-22T05:17:27.201Z,26.88
2023-05-22T05:19:53.801Z,20.67
2023-05-22T05:22:20.429Z,20.85
2023-05-22T05:24:46.861Z,20.25
2023-05-22T05:27:13.968Z,21.58
2023-05-22T05:29:41.294Z,22.83
2023-05-22T05:32:08.146Z,18.45
2023-05-22T05:34:34.758Z,22.25
2023-05-22T05:37:02.813Z,24.40
2023-05-22T05:39:29.667Z,26.88
2023-05-22T05:41:56.210Z,21.00
2023-05-22T05:44:22.723Z,20.98
2023-05-22T05:46:49.236Z,27.98
2023-05-22T05:49:15.786Z,25.55
2023-05-22T05:51:42.211Z,23.60
2023-05-22T05:54:08.675Z,21.08
2023-05-22T05:56:35.159Z,29.65
2023-05-22T05:59:01.634Z,19.50
2023-05-22T06:01:28.229Z,26.40
2023-05-22T06:03:54.854Z,22.25
2023-05-22T06:06:21.755Z,27.13
2023-05-22T06:08:48.252Z,25.63
2023-05-22T06:11:14.694Z,30.75
2023-05-22T06:13:41.675Z,26.02
2023-05-22T06:16:08.166Z,31.52
2023-05-22T06:18:34.645Z,29.92
2023-05-22T06:21:01.118Z,25.98
2023-05-22T06:23:27.605Z,27.10
2023-05-22T06:25:54.089Z,25.88
2023-05-22T06:28:20.544Z,31.05
2023-05-22T06:30:47.226Z,27.27
2023-05-22T06:33:14.593Z,29.48
2023-05-22T06:35:42.022Z,25.63
2023-05-22T06:38:08.488Z,24.10
2023-05-22T06:40:34.948Z,38.50
2023-05-22T06:43:01.836Z,35.30
2023-05-22T06:45:28.316Z,31.88
2023-05-22T06:47:55.204Z,34.75
2023-05-22T06:50:22.306Z,33.80
2023-05-22T06:52:49.319Z,48.78
2023-05-22T06:55:15.792Z,33.75
2023-05-22T06:57:42.216Z,33.35
2023-05-22T07:00:09.826Z,33.17
2023-05-22T07:02:36.320Z,33.63
2023-05-22T07:05:02.865Z,30.65
2023-05-22T07:07:29.368Z,32.28
2023-05-22T07:09:55.853Z,27.10
2023-05-22T07:12:26.020Z,28.30
2023-05-22T07:14:52.927Z,30.70
2023-05-22T07:17:20.555Z,37.60
2023-05-22T07:19:47.386Z,44.67
2023-05-22T07:22:14.040Z,28.77
2023-05-22T07:24:40.501Z,32.67
2023-05-22T07:27:07.171Z,40.88
2023-05-22T07:29:33.662Z,36.55
2023-05-22T07:32:00.190Z,34.53
2023-05-22T07:34:32.063Z,39.33
2023-05-22T07:39:24.886Z,41.80
2023-05-22T07:41:51.349Z,26.25
2023-05-22T07:44:17.858Z,26.88
2023-05-22T07:46:44.517Z,27.60
2023-05-22T07:49:11.041Z,34.83
2023-05-22T07:51:37.462Z,36.50
2023-05-22T07:54:04.027Z,38.70
2023-05-22T07:56:30.686Z,32.47
2023-05-22T07:58:57.144Z,39.45
2023-05-22T08:01:23.663Z,24.67
2023-05-22T08:03:50.312Z,21.40
2023-05-22T08:06:17.885Z,26.30
2023-05-22T08:08:44.351Z,26.13
2023-05-22T08:11:11.418Z,28.50
2023-05-22T08:13:38.830Z,27.10
2023-05-22T08:16:05.930Z,32.20
2023-05-22T08:18:32.472Z,24.60
2023-05-22T08:21:00.347Z,25.45
2023-05-22T08:23:26.914Z,23.13
2023-05-22T08:25:53.367Z,23.98
2023-05-22T08:28:19.805Z,28.70
2023-05-22T08:30:46.429Z,26.15
2023-05-22T08:33:12.950Z,24.58
2023-05-22T08:35:39.657Z,23.63
2023-05-22T08:38:06.238Z,25.83
2023-05-22T08:40:36.198Z,23.92
2023-05-22T08:43:03.030Z,33.65
2023-05-22T08:45:30.109Z,22.40
2023-05-22T08:47:57.458Z,26.30
2023-05-22T08:50:24.897Z,23.27
2023-05-22T08:52:52.089Z,26.90
2023-05-22T08:55:19.678Z,27.00
2023-05-22T08:57:46.402Z,24.40
2023-05-22T09:00:13.176Z,25.65
2023-05-22T09:02:39.880Z,21.77
2023-05-22T09:05:07.263Z,23.52
2023-05-22T09:07:33.780Z,22.70
2023-05-22T09:10:01.246Z,22.17
2023-05-22T09:12:27.686Z,19.90
2023-05-22T09:14:56.040Z,18.30
2023-05-22T09:17:22.514Z,22.92
2023-05-22T09:19:48.992Z,19.10
2023-05-22T09:22:16.774Z,20.13
2023-05-22T09:24:44.812Z,19.85
2023-05-22T09:27:11.746Z,19.20
2023-05-22T09:29:50.928Z,21.08
2023-05-22T09:32:18.385Z,16.65
2023-05-22T09:34:46.884Z,17.33
2023-05-22T09:37:13.677Z,16.52
2023-05-22T09:39:41.580Z,20.33
2023-05-22T09:42:08.863Z,20.38
2023-05-22T09:44:35.573Z,21.35
2023-05-22T09:47:03.037Z,17.95
2023-05-22T09:49:29.519Z,18.95
2023-05-22T09:51:56.364Z,16.60
2023-05-22T09:54:24.828Z,20.50
2023-05-22T09:56:56.385Z,17.50
2023-05-22T09:59:27.012Z,15.18
2023-05-22T10:01:54.003Z,21.30
2023-05-22T10:04:22.382Z,16.08
2023-05-22T10:06:51.167Z,20.20
2023-05-22T10:09:19.705Z,21.48
2023-05-22T10:11:46.438Z,15.13
2023-05-22T10:14:13.483Z,20.65
2023-05-22T10:16:41.485Z,16.00
2023-05-22T10:19:08.461Z,14.85
2023-05-22T10:21:37.103Z,20.52
2023-05-22T10:24:03.751Z,15.55
2023-05-22T10:26:30.574Z,13.25
2023-05-22T10:29:07.526Z,21.17
2023-05-22T10:31:42.389Z,16.20
2023-05-22T10:34:11.485Z,16.88
2023-05-22T10:37:09.566Z,14.30
2023-05-22T10:40:01.887Z,14.13
2023-05-22T10:42:31.968Z,12.57
2023-05-22T10:45:00.507Z,16.02
2023-05-22T10:47:26.987Z,17.67
2023-05-22T10:50:02.942Z,19.48
2023-05-22T10:52:29.413Z,19.95
2023-05-22T10:54:56.391Z,15.43
2023-05-22T10:57:24.164Z,14.02
2023-05-22T10:59:50.754Z,20.73
2023-05-22T11:02:21.304Z,14.43
2023-05-22T11:04:48.189Z,20.02
2023-05-22T11:07:15.288Z,17.98
2023-05-22T11:09:47.489Z,14.38
2023-05-22T11:12:21.565Z,14.73
2023-05-22T11:14:49.934Z,16.70
2023-05-22T11:17:24.126Z,17.02
2023-05-22T11:20:02.899Z,16.60
2023-05-22T11:22:30.833Z,21.60
2023-05-22T11:24:57.381Z,11.90
2023-05-22T11:27:24.230Z,17.90
2023-05-22T11:29:51.012Z,21.50
2023-05-22T11:32:20.956Z,13.27
2023-05-22T11:34:47.796Z,15.00
2023-05-22T11:37:14.393Z,13.98
2023-05-22T11:39:40.857Z,15.23
2023-05-22T11:42:07.297Z,10.98
2023-05-22T11:44:33.742Z,12.88
2023-05-22T11:47:00.759Z,10.90
2023-05-22T11:49:27.591Z,13.57
2023-05-22T11:51:54.253Z,11.75
2023-05-22T11:54:22.206Z,15.18
2023-05-22T11:56:48.663Z,13.77
2023-05-22T11:59:15.259Z,13.93
2023-05-22T12:01:41.683Z,11.80
2023-05-22T12:04:08.307Z,12.85
2023-05-22T12:06:34.978Z,12.13
2023-05-22T12:09:01.488Z,12.07
2023-05-22T12:11:28.172Z,10.32
2023-05-22T12:14:01.122Z,10.20
2023-05-22T12:16:27.666Z,10.25
2023-05-22T12:18:54.569Z,16.17
2023-05-22T12:21:21.108Z,9.10
2023-05-22T12:23:48.170Z,10.73
2023-05-22T12:26:14.583Z,9.23
2023-05-22T12:28:41.050Z,10.73
2023-05-22T12:31:07.517Z,9.38
2023-05-22T12:33:34.219Z,10.35
2023-05-22T12:36:01.026Z,11.57
2023-05-22T12:38:28.246Z,15.90
2023-05-22T12:40:55.185Z,10.75
2023-05-22T12:43:27.728Z,9.80
2023-05-22T12:45:54.306Z,16.13
2023-05-22T12:48:20.795Z,12.20
2023-05-22T12:50:47.360Z,12.63
2023-05-22T12:53:13.916Z,11.18
2023-05-22T12:55:41.016Z,16.25
2023-05-22T12:58:07.478Z,13.85
2023-05-22T13:00:34.097Z,14.07
2023-05-22T13:03:01.129Z,11.57
2023-05-22T13:05:27.690Z,11.18
2023-05-22T13:07:54.305Z,10.25
2023-05-22T13:10:20.768Z,13.98
2023-05-22T13:12:48.580Z,11.43
2023-05-22T13:15:16.052Z,10.85
2023-05-22T13:25:31.344Z,12.55
2023-05-22T13:27:59.512Z,23.45
2023-05-22T13:30:26.404Z,13.15
2023-05-22T13:32:53.187Z,11.13
2023-05-22T13:35:19.803Z,11.57
2023-05-22T13:37:46.802Z,12.48
2023-05-22T13:40:14.585Z,9.43
2023-05-22T13:42:41.352Z,13.75
2023-05-22T13:45:08.646Z,11.73
2023-05-22T13:47:35.504Z,10.10
2023-05-22T13:50:02.196Z,10.55
2023-05-22T13:52:28.908Z,9.25
2023-05-22T13:54:56.172Z,7.50
2023-05-22T13:57:22.758Z,12.93
2023-05-22T13:59:49.424Z,9.88
2023-05-22T14:02:16.022Z,13.35
2023-05-22T14:04:42.673Z,13.70
2023-05-22T14:07:09.248Z,13.82
2023-05-22T14:09:35.895Z,20.73
2023-05-22T14:12:02.720Z,12.57
2023-05-22T14:14:29.266Z,12.65
2023-05-22T14:16:55.920Z,11.77
2023-05-22T14:19:22.618Z,11.30
2023-05-22T14:21:50.875Z,12.90
2023-05-22T14:24:18.020Z,9.45
2023-05-22T14:26:44.892Z,13.55
2023-05-22T14:29:11.954Z,11.98
2023-05-22T14:31:51.783Z,12.27
2023-05-22T14:34:18.889Z,12.95
2023-05-22T14:36:46.100Z,11.23
2023-05-22T14:39:12.674Z,12.50
2023-05-22T14:41:39.349Z,13.88
2023-05-22T14:44:06.116Z,10.85
2023-05-22T14:46:32.764Z,12.55
2023-05-22T14:48:59.338Z,10.27
2023-05-22T14:51:25.998Z,14.38
2023-05-22T14:53:52.836Z,14.23
2023-05-22T14:56:19.488Z,17.75
2023-05-22T14:58:46.073Z,12.73
2023-05-22T15:01:12.656Z,14.18
2023-05-22T15:03:39.292Z,12.18
2023-05-22T15:06:06.111Z,13.45
2023-05-22T15:08:32.718Z,12.48
2023-05-22T15:10:59.392Z,15.20
2023-05-22T15:13:26.019Z,14.95
2023-05-22T15:15:52.753Z,12.95
2023-05-22T15:18:20.127Z,15.25
2023-05-22T15:20:46.777Z,15.80
2023-05-22T15:23:13.797Z,18.42
2023-05-22T15:25:41.109Z,19.73
2023-05-22T15:28:07.990Z,18.17
2023-05-22T15:30:38.885Z,16.98
2023-05-22T15:33:05.763Z,17.27
2023-05-22T15:35:32.402Z,14.70
2023-05-22T15:37:59.271Z,15.20
2023-05-22T15:40:26.084Z,14.20
2023-05-22T15:42:53.458Z,13.80
2023-05-22T15:45:20.587Z,13.43
2023-05-22T15:47:47.930Z,16.80
2023-05-22T15:50:14.656Z,12.90
2023-05-22T15:52:41.225Z,14.73
2023-05-22T15:55:08.172Z,14.10
2023-05-22T15:57:34.816Z,14.10
2023-05-22T16:00:01.451Z,15.15
2023-05-22T16:02:28.153Z,16.48
2023-05-22T16:04:54.778Z,11.77
2023-05-22T16:07:21.427Z,13.20
2023-05-22T16:12:16.984Z,13.35
2023-05-22T16:14:43.568Z,17.40
2023-05-22T16:17:10.161Z,15.60
2023-05-22T16:19:36.837Z,13.05
2023-05-22T16:22:03.658Z,18.52
2023-05-22T16:24:30.286Z,16.38
2023-05-22T16:26:59.225Z,16.92
2023-05-22T16:29:25.852Z,16.38
2023-05-22T16:31:52.463Z,19.98
2023-05-22T16:34:19.195Z,22.42
2023-05-22T16:36:45.936Z,19.92
2023-05-22T16:39:12.741Z,15.25
2023-05-22T16:41:39.338Z,18.55
2023-05-22T16:44:05.944Z,17.27
2023-05-22T16:46:32.582Z,15.07
2023-05-22T16:48:59.232Z,21.48
2023-05-22T16:51:25.814Z,16.92
2023-05-22T16:53:52.381Z,19.40
2023-05-22T16:56:20.753Z,19.00
2023-05-22T16:58:47.808Z,16.90
2023-05-22T17:01:14.569Z,15.00
2023-05-22T17:03:41.260Z,17.33
2023-05-22T17:06:09.022Z,15.82
2023-05-22T17:08:35.701Z,21.63
2023-05-22T17:11:02.333Z,18.35
2023-05-22T17:13:28.905Z,21.67
2023-05-22T17:15:55.700Z,19.77
2023-05-22T17:18:22.330Z,16.52
2023-05-22T17:20:49.853Z,16.80
2023-05-22T17:23:17.295Z,20.77
2023-05-22T17:25:46.593Z,19.05
2023-05-22T17:28:14.532Z,24.08
2023-05-22T17:30:42.757Z,23.17
2023-05-22T17:33:10.245Z,16.90
2023-05-22T17:35:36.866Z,17.92
2023-05-22T17:38:03.563Z,18.08
2023-05-22T17:40:44.047Z,22.65
2023-05-22T17:43:12.520Z,21.70
2023-05-22T17:45:39.642Z,20.23
2023-05-22T17:48:07.659Z,18.73
2023-05-22T17:50:34.358Z,18.20
2023-05-22T17:53:00.924Z,21.50
2023-05-22T17:55:27.512Z,17.67
2023-05-22T17:57:54.269Z,22.20
2023-05-22T18:00:20.934Z,22.38
2023-05-22T18:02:47.762Z,17.73
2023-05-22T18:05:14.520Z,23.30
2023-05-22T18:07:41.245Z,19.25
2023-05-22T18:10:08.303Z,21.65
2023-05-22T18:12:37.308Z,18.42
2023-05-22T18:15:05.128Z,21.17
2023-05-22T18:17:32.560Z,20.60
2023-05-22T18:20:01.019Z,22.92
2023-05-22T18:22:27.567Z,18.58
2023-05-22T18:24:54.149Z,22.20
2023-05-22T18:27:20.808Z,20.77
2023-05-22T18:29:47.320Z,28.98
2023-05-22T18:32:13.901Z,25.02
2023-05-22T18:34:41.109Z,23.15
2023-05-22T18:37:07.758Z,25.08
2023-05-22T18:39:34.321Z,21.58
2023-05-22T18:42:01.152Z,26.33
2023-05-22T18:44:27.813Z,30.02
2023-05-22T18:46:54.493Z,27.33
2023-05-22T18:49:21.288Z,21.58
2023-05-22T18:51:47.927Z,28.20
2023-05-22T18:54:14.522Z,26.75
2023-05-22T18:56:41.131Z,29.92
2023-05-22T18:59:07.793Z,31.67
2023-05-22T19:01:34.427Z,30.88
2023-05-22T19:04:01.079Z,35.47
2023-05-22T19:06:29.002Z,32.83
2023-05-22T19:08:55.565Z,29.10
2023-05-22T19:11:22.095Z,31.35
2023-05-22T19:13:48.648Z,33.08
2023-05-22T19:16:15.368Z,34.08
2023-05-22T19:18:42.177Z,33.10
2023-05-22T19:21:08.867Z,34.38
2023-05-22T19:23:36.653Z,34.50
2023-05-22T19:26:03.483Z,34.83
2023-05-22T19:28:32.296Z,36.13
2023-05-22T19:31:00.084Z,35.40
2023-05-22T19:33:27.651Z,37.85
2023-05-22T19:35:54.250Z,39.92
2023-05-22T19:38:20.884Z,34.78
2023-05-22T19:40:47.456Z,36.40
2023-05-22T19:43:14.460Z,41.05
2023-05-22T19:45:41.070Z,35.42
2023-05-22T19:48:07.838Z,39.35
2023-05-22T19:50:35.543Z,38.42
2023-05-22T19:53:02.482Z,33.67
2023-05-22T19:55:29.248Z,37.10
2023-05-22T19:57:56.052Z,38.17
2023-05-22T20:00:22.854Z,36.53
2023-05-22T20:02:50.066Z,40.65
2023-05-22T20:05:17.047Z,35.63
2023-05-22T20:07:43.648Z,34.38
2023-05-22T20:10:11.284Z,39.40
2023-05-22T20:12:38.168Z,33.97
2023-05-22T20:15:06.947Z,31.00
2023-05-22T20:17:34.519Z,34.35
2023-05-22T20:20:01.148Z,34.50
2023-05-22T20:22:27.963Z,37.10
2023-05-22T20:24:54.578Z,33.17
2023-05-22T20:27:21.243Z,34.63
2023-05-22T20:29:49.942Z,33.08
2023-05-22T20:32:17.017Z,42.03
2023-05-22T20:34:45.161Z,33.90
2023-05-22T20:37:13.653Z,35.97
2023-05-22T20:39:43.231Z,32.25
2023-05-22T20:42:11.645Z,36.65
2023-05-22T20:44:38.401Z,35.60
2023-05-22T20:47:05.940Z,38.28
2023-05-22T20:49:34.765Z,31.98
2023-05-22T20:52:02.784Z,34.55
2023-05-22T20:54:34.085Z,39.33
2023-05-22T20:57:01.527Z,38.38
2023-05-22T20:59:31.080Z,38.38
2023-05-22T21:01:57.970Z,40.95
2023-05-22T21:04:24.757Z,33.38
2023-05-22T21:06:51.472Z,42.58
2023-05-22T21:09:18.208Z,39.83
2023-05-22T21:11:44.863Z,40.92
2023-05-22T21:14:11.546Z,40.03
2023-05-22T21:16:39.572Z,42.80
2023-05-22T21:19:07.263Z,44.10
2023-05-22T21:21:36.224Z,44.53
2023-05-22T21:24:02.903Z,40.00
2023-05-22T21:26:29.562Z,42.70
2023-05-22T21:28:56.359Z,43.55
2023-05-22T21:31:23.030Z,43.67
2023-05-22T21:33:49.659Z,45.58
2023-05-22T21:36:16.275Z,40.28
2023-05-22T21:38:42.870Z,38.45
2023-05-22T21:41:09.384Z,40.45
2023-05-22T21:43:35.960Z,43.63
2023-05-22T21:46:02.582Z,44.78
2023-05-22T21:48:29.228Z,44.25
2023-05-22T21:50:56.097Z,39.72
2023-05-22T21:53:23.044Z,42.85
2023-05-22T21:55:49.875Z,45.75
2023-05-22T21:58:16.435Z,47.97
2023-05-22T22:00:42.992Z,43.97
2023-05-22T22:03:09.736Z,45.17
2023-05-22T22:05:36.802Z,43.13
2023-05-22T22:08:03.366Z,44.03
2023-05-22T22:10:29.893Z,46.00
2023-05-22T22:12:56.458Z,46.15
2023-05-22T22:15:23.152Z,47.13
2023-05-22T22:17:50.274Z,48.70
2023-05-22T22:20:18.659Z,43.70
2023-05-22T22:22:47.134Z,48.22
2023-05-22T22:25:13.732Z,54.60
2023-05-22T22:27:40.712Z,49.85
2023-05-22T22:30:08.200Z,50.08
2023-05-22T22:32:34.769Z,47.55
2023-05-22T22:35:01.628Z,48.00
2023-05-22T22:37:28.453Z,50.17
2023-05-22T22:39:55.297Z,49.42
2023-05-22T22:42:21.997Z,53.58
2023-05-22T22:44:48.554Z,52.78
2023-05-22T22:47:15.122Z,56.97
2023-05-22T22:49:42.427Z,57.42
2023-05-22T22:52:09.027Z,58.28
2023-05-22T22:54:35.813Z,59.85
2023-05-22T22:57:02.478Z,61.78
2023-05-22T22:59:29.211Z,57.42
2023-05-22T23:01:55.917Z,62.20
2023-05-22T23:04:22.611Z,61.33
2023-05-22T23:06:49.237Z,57.40
2023-05-22T23:09:15.777Z,61.72
2023-05-22T23:11:42.337Z,63.08
2023-05-22T23:14:09.758Z,62.25
2023-05-22T23:16:37.820Z,64.25
2023-05-22T23:19:05.152Z,60.28
2023-05-22T23:21:32.653Z,58.30
2023-05-22T23:24:00.451Z,58.67
2023-05-22T23:26:28.102Z,59.47
2023-05-22T23:28:54.677Z,54.45
2023-05-22T23:31:26.265Z,60.35
2023-05-22T23:33:53.237Z,61.47
2023-05-22T23:36:19.858Z,63.90
2023-05-22T23:38:46.930Z,58.08
2023-05-22T23:41:19.873Z,62.63
2023-05-22T23:43:47.128Z,57.47
2023-05-22T23:46:14.186Z,62.05
2023-05-22T23:48:42.091Z,64.35
2023-05-22T23:51:14.311Z,67.47
2023-05-22T23:53:42.298Z,61.53
2023-05-22T23:56:09.393Z,62.03
2023-05-22T23:58:37.484Z,69.07
